Time;durP1;ratioP1;P1;durP2;ratioP2;P2;SDS_P1;SDS_P2;PMS_P1;PMS_P2;Temp;Humidity;BMP_temperature;BMP_pressure;BME280_temperature;BME280_humidity;BME280_pressure;Samples;Min_cycle;Max_cycle;Signal;HPM_P1;HPM_P2
2021/03/27 00:02:16;;;;;;;4.57;2.20;;;7.10;93.60;;;;;;5082358;28;20213;-86
2021/03/27 00:05:21;;;;;;;7.00;2.20;;;7.10;91.40;;;;;;5080732;28;20255;-87
2021/03/27 00:08:34;;;;;;;5.17;1.83;;;7.10;90.80;;;;;;5079838;28;20168;-79
2021/03/27 00:11:29;;;;;;;6.50;2.30;;;7.10;90.40;;;;;;5067723;28;20223;-81
2021/03/27 00:14:05;;;;;;;5.63;1.97;;;7.10;90.70;;;;;;5083682;28;20152;-85
2021/03/27 00:16:35;;;;;;;6.03;2.17;;;7.10;91.30;;;;;;5066217;28;20174;-80
2021/03/27 00:19:09;;;;;;;3.33;2.03;;;7.10;90.80;;;;;;5091372;28;20260;-86
2021/03/27 00:21:46;;;;;;;6.77;2.37;;;7.10;90.70;;;;;;5091534;28;20179;-83
2021/03/27 00:24:37;;;;;;;5.70;2.40;;;7.20;90.90;;;;;;5093425;28;20634;-86
2021/03/27 00:27:08;;;;;;;6.37;2.57;;;7.10;91.00;;;;;;5092091;28;20203;-82
2021/03/27 00:29:39;;;;;;;5.40;2.33;;;7.20;90.10;;;;;;5092784;28;20234;-87
2021/03/27 00:32:09;;;;;;;6.20;1.70;;;7.10;91.00;;;;;;5071565;28;20577;-79
2021/03/27 00:34:41;;;;;;;5.77;2.00;;;7.10;90.60;;;;;;5059934;28;20179;-85
2021/03/27 00:37:17;;;;;;;4.97;1.90;;;7.10;90.00;;;;;;5058734;28;20172;-78
2021/03/27 00:40:06;;;;;;;7.43;2.33;;;7.20;89.90;;;;;;5076902;28;20203;-87
2021/03/27 00:42:37;;;;;;;4.87;1.70;;;7.20;88.40;;;;;;5076381;28;20253;-85
2021/03/27 00:45:15;;;;;;;5.77;1.80;;;7.10;88.50;;;;;;5076510;28;20168;-86
2021/03/27 00:47:45;;;;;;;6.60;2.30;;;7.10;87.50;;;;;;5058631;28;20168;-84
2021/03/27 00:50:22;;;;;;;6.93;2.90;;;7.10;90.00;;;;;;5076373;28;20173;-85
2021/03/27 00:52:53;;;;;;;7.33;2.50;;;7.10;89.60;;;;;;5058533;28;20198;-82
2021/03/27 00:55:24;;;;;;;7.03;2.87;;;7.20;89.00;;;;;;5076004;28;20195;-83
2021/03/27 00:57:56;;;;;;;6.10;2.30;;;7.20;87.70;;;;;;5076130;28;20196;-84
2021/03/27 01:00:35;;;;;;;6.73;2.57;;;7.20;87.40;;;;;;5075796;28;20175;-83
2021/03/27 01:03:06;;;;;;;7.87;2.40;;;7.10;88.40;;;;;;5076357;28;20180;-86
2021/03/27 01:05:33;;;;;;;6.60;2.40;;;7.10;90.00;;;;;;5075936;28;20164;-84
2021/03/27 01:08:00;;;;;;;7.53;2.33;;;7.10;87.70;;;;;;5076171;28;20636;-79
2021/03/27 01:10:36;;;;;;;7.00;2.47;;;7.10;86.30;;;;;;5075830;28;20177;-86
2021/03/27 01:13:08;;;;;;;8.67;2.23;;;7.10;87.80;;;;;;5076197;28;20190;-85
2021/03/27 01:15:41;;;;;;;7.13;2.37;;;7.10;84.80;;;;;;5075668;28;20163;-90
2021/03/27 01:18:12;;;;;;;7.10;2.10;;;7.10;85.80;;;;;;5058212;28;20180;-79
2021/03/27 01:20:43;;;;;;;4.90;2.33;;;7.00;83.60;;;;;;5058062;28;20169;-86
2021/03/27 01:23:10;;;;;;;5.10;2.30;;;7.10;81.40;;;;;;5075769;28;20627;-86
2021/03/27 01:25:38;;;;;;;5.03;2.10;;;7.10;78.70;;;;;;5075851;28;20168;-86
2021/03/27 01:28:28;;;;;;;4.97;1.63;;;7.00;77.90;;;;;;5075656;28;20180;-81
2021/03/27 01:30:58;;;;;;;9.70;2.23;;;6.90;80.90;;;;;;5077004;28;20257;-78
2021/03/27 01:33:48;;;;;;;8.43;2.70;;;6.90;79.70;;;;;;5061223;28;20187;-82
2021/03/27 01:36:16;;;;;;;8.10;2.13;;;6.90;80.10;;;;;;5075543;28;20172;-86
2021/03/27 01:39:18;;;;;;;8.77;1.80;;;6.90;78.70;;;;;;5058023;28;20196;-86
2021/03/27 01:41:52;;;;;;;7.20;2.40;;;6.90;75.60;;;;;;5070570;28;20554;-85
2021/03/27 01:44:23;;;;;;;9.30;2.50;;;7.00;74.90;;;;;;5075393;28;20256;-87
2021/03/27 01:47:26;;;;;;;7.67;2.63;;;6.90;74.00;;;;;;5075245;28;20178;-84
2021/03/27 01:50:21;;;;;;;7.77;2.43;;;6.90;77.40;;;;;;5075223;28;20632;-81
2021/03/27 01:52:54;;;;;;;6.27;2.10;;;6.80;80.00;;;;;;5057129;28;20184;-87
2021/03/27 01:55:42;;;;;;;8.27;2.47;;;6.80;82.10;;;;;;5074314;28;20243;-87
2021/03/27 01:58:17;;;;;;;6.60;2.33;;;6.80;82.20;;;;;;5057127;28;20172;-82
2021/03/27 02:00:50;;;;;;;7.17;2.30;;;6.70;85.30;;;;;;5057562;28;20182;-85
2021/03/27 02:03:22;;;;;;;14.00;2.60;;;6.80;85.10;;;;;;5075041;28;20575;-85
2021/03/27 02:05:59;;;;;;;8.10;2.47;;;6.80;84.20;;;;;;5075361;28;20164;-85
2021/03/27 02:08:33;;;;;;;8.50;2.40;;;6.70;84.20;;;;;;5075161;28;20176;-86
2021/03/27 02:11:30;;;;;;;7.33;2.67;;;6.70;85.90;;;;;;5074847;28;20191;-85
2021/03/27 02:14:13;;;;;;;7.27;2.67;;;6.70;86.30;;;;;;5074727;28;20172;-86
2021/03/27 02:16:44;;;;;;;5.63;2.47;;;6.80;85.60;;;;;;5056801;28;20642;-87
2021/03/27 02:19:31;;;;;;;7.90;2.33;;;6.80;85.00;;;;;;5074593;28;20177;-85
2021/03/27 02:22:17;;;;;;;9.57;2.60;;;6.80;84.30;;;;;;5074362;28;20176;-86
2021/03/27 02:25:19;;;;;;;9.63;2.50;;;6.80;86.20;;;;;;5074865;28;20195;-78
2021/03/27 02:27:53;;;;;;;10.30;2.80;;;6.80;86.30;;;;;;5074562;28;20219;-87
2021/03/27 02:30:47;;;;;;;10.33;2.50;;;6.80;84.30;;;;;;5057778;28;20180;-84
2021/03/27 02:33:21;;;;;;;10.17;3.30;;;6.80;83.20;;;;;;5072923;28;20271;-87
2021/03/27 02:35:56;;;;;;;10.97;3.00;;;6.90;83.10;;;;;;5075337;28;20191;-84
2021/03/27 02:38:35;;;;;;;10.40;2.40;;;7.00;80.40;;;;;;5074581;28;20199;-88
2021/03/27 02:41:25;;;;;;;8.67;2.70;;;6.80;82.30;;;;;;5074309;28;20691;-84
2021/03/27 02:44:22;;;;;;;13.60;3.00;;;6.90;83.00;;;;;;5074399;28;20188;-86
2021/03/27 02:46:53;;;;;;;8.60;2.70;;;6.90;83.50;;;;;;5067330;28;20188;-86
2021/03/27 02:49:28;;;;;;;8.33;3.20;;;6.90;81.70;;;;;;5074271;28;20172;-86
2021/03/27 02:52:21;;;;;;;8.87;3.20;;;6.90;81.20;;;;;;5074361;28;20561;-85
2021/03/27 02:55:18;;;;;;;11.50;2.83;;;6.90;80.90;;;;;;5055741;28;20184;-88
2021/03/27 02:58:00;;;;;;;11.20;3.17;;;7.00;81.60;;;;;;5074674;28;20663;-87
2021/03/27 03:00:43;;;;;;;12.37;2.70;;;6.90;81.30;;;;;;5056495;28;20195;-84
2021/03/27 03:03:25;;;;;;;9.77;2.90;;;7.00;82.10;;;;;;5074041;28;20187;-87
2021/03/27 03:05:59;;;;;;;11.47;2.67;;;7.00;81.50;;;;;;5056410;28;20168;-84
2021/03/27 03:08:57;;;;;;;9.23;2.87;;;6.90;84.40;;;;;;5074221;28;20183;-84
2021/03/27 03:11:36;;;;;;;8.43;2.70;;;6.90;85.60;;;;;;5014258;28;20610;-86
2021/03/27 03:14:17;;;;;;;11.10;3.50;;;6.90;86.60;;;;;;5056018;28;20172;-88
2021/03/27 03:16:57;;;;;;;7.50;2.87;;;6.90;84.30;;;;;;5056473;28;20172;-78
2021/03/27 03:19:40;;;;;;;13.17;4.00;;;6.90;84.80;;;;;;5074092;28;20164;-86
2021/03/27 03:22:14;;;;;;;9.73;3.13;;;7.00;83.50;;;;;;5073777;28;20164;-83
2021/03/27 03:24:56;;;;;;;8.33;3.07;;;7.00;80.90;;;;;;5073480;28;20736;-88
2021/03/27 03:27:50;;;;;;;9.00;3.27;;;7.00;78.70;;;;;;5073862;28;20184;-86
2021/03/27 03:30:24;;;;;;;10.30;2.67;;;7.00;79.40;;;;;;5073790;28;20163;-85
2021/03/27 03:33:08;;;;;;;14.20;2.63;;;7.00;78.40;;;;;;5073881;28;20164;-86
2021/03/27 03:36:02;;;;;;;7.97;2.67;;;6.90;77.90;;;;;;5073928;28;20271;-86
2021/03/27 03:38:39;;;;;;;14.67;2.77;;;6.90;79.80;;;;;;5073982;28;20196;-86
2021/03/27 03:41:30;;;;;;;7.17;2.63;;;6.90;73.90;;;;;;5055498;28;20176;-87
2021/03/27 03:44:02;;;;;;;12.00;2.80;;;7.00;74.80;;;;;;5073392;28;20200;-85
2021/03/27 03:46:33;;;;;;;10.07;3.20;;;7.00;71.50;;;;;;5073493;28;20572;-87
2021/03/27 03:49:26;;;;;;;10.03;2.40;;;6.90;68.00;;;;;;5055926;28;20175;-87
2021/03/27 03:52:29;;;;;;;8.60;2.63;;;6.90;69.50;;;;;;5055905;28;20219;-86
2021/03/27 03:55:26;;;;;;;12.40;3.33;;;7.00;65.60;;;;;;5073290;28;20164;-89
2021/03/27 03:58:27;;;;;;;11.37;2.60;;;6.90;65.80;;;;;;5072382;28;20176;-87
2021/03/27 04:01:15;;;;;;;13.87;2.97;;;6.90;66.40;;;;;;4972919;28;20174;-84
2021/03/27 04:04:13;;;;;;;11.67;2.80;;;6.90;63.50;;;;;;5068236;28;20188;-88
2021/03/27 04:06:41;;;;;;;16.23;3.23;;;7.00;59.10;;;;;;5058593;28;20606;-86
2021/03/27 04:09:09;;;;;;;13.20;2.77;;;7.10;57.20;;;;;;5077481;28;20184;-87
2021/03/27 04:12:02;;;;;;;14.27;3.17;;;7.00;56.80;;;;;;5077469;28;20204;-86
2021/03/27 04:14:48;;;;;;;14.50;3.40;;;7.00;57.50;;;;;;5077273;28;20171;-82
2021/03/27 04:17:27;;;;;;;14.57;3.70;;;7.10;56.60;;;;;;5059221;28;20632;-82
2021/03/27 04:20:10;;;;;;;15.37;3.70;;;7.10;58.50;;;;;;5076944;28;20214;-86
2021/03/27 04:22:49;;;;;;;11.53;3.03;;;7.10;63.50;;;;;;5076770;28;20175;-80
2021/03/27 04:25:32;;;;;;;12.93;2.90;;;7.00;62.80;;;;;;5077100;28;20161;-86
2021/03/27 04:28:05;;;;;;;9.57;3.40;;;7.00;63.70;;;;;;5076640;28;20218;-87
2021/03/27 04:31:01;;;;;;;8.33;2.83;;;6.90;71.40;;;;;;5076789;28;20176;-86
2021/03/27 04:33:53;;;;;;;7.53;2.90;;;6.90;66.00;;;;;;5059515;28;20246;-84
2021/03/27 04:36:25;;;;;;;5.37;2.10;;;6.90;59.80;;;;;;5058918;28;20215;-86
2021/03/27 04:38:56;;;;;;;8.20;2.70;;;6.80;51.30;;;;;;5076574;28;20183;-77
2021/03/27 04:41:29;;;;;;;8.03;1.80;;;6.60;55.30;;;;;;5076415;28;20172;-84
2021/03/27 04:43:59;;;;;;;7.63;1.97;;;6.60;56.40;;;;;;5076625;28;20220;-83
2021/03/27 04:46:32;;;;;;;4.53;1.70;;;6.50;54.60;;;;;;5076481;28;20183;-79
2021/03/27 04:49:09;;;;;;;4.53;1.60;;;6.40;58.10;;;;;;5059026;28;20172;-82
2021/03/27 04:51:58;;;;;;;7.93;1.73;;;6.50;58.30;;;;;;5058175;28;20306;-85
2021/03/27 04:54:47;;;;;;;5.43;1.80;;;6.40;63.00;;;;;;5076162;28;20269;-86
2021/03/27 04:57:35;;;;;;;5.13;1.90;;;6.30;66.50;;;;;;5076042;28;20228;-78
2021/03/27 05:00:00;;;;;;;5.13;1.60;;;6.30;73.00;;;;;;5058215;28;20541;-82
2021/03/27 05:02:38;;;;;;;6.77;2.03;;;6.20;72.90;;;;;;5058424;28;20168;-81
2021/03/27 05:05:48;;;;;;;4.20;1.53;;;6.10;60.20;;;;;;5075773;28;20164;-83
2021/03/27 05:08:35;;;;;;;3.30;1.43;;;6.20;1.70;;;;;;4974845;28;20187;-84
2021/03/27 05:11:24;;;;;;;6.57;1.73;;;6.30;8.90;;;;;;4974819;28;20253;-80
2021/03/27 05:14:21;;;;;;;6.37;1.60;;;6.30;15.90;;;;;;5052530;28;20192;-79
2021/03/27 05:17:25;;;;;;;5.97;1.60;;;6.30;24.00;;;;;;5075488;28;20240;-80
2021/03/27 05:19:56;;;;;;;7.43;1.80;;;6.40;22.40;;;;;;5058155;28;20624;-85
2021/03/27 05:22:32;;;;;;;5.67;1.43;;;6.40;8.90;;;;;;5075659;28;20203;-83
2021/03/27 05:25:09;;;;;;;5.53;1.50;;;6.40;12.90;;;;;;5075828;28;20674;-83
2021/03/27 05:27:54;;;;;;;7.00;1.33;;;6.40;5.70;;;;;;5057922;28;20199;-81
2021/03/27 05:30:20;;;;;;;7.20;1.50;;;6.40;1.00;;;;;;5075946;28;20168;-85
2021/03/27 05:33:16;;;;;;;3.57;1.47;;;6.40;1.00;;;;;;5076197;28;20225;-84
2021/03/27 05:35:53;;;;;;;6.03;1.40;;;6.20;1.00;;;;;;5075734;28;20160;-80
2021/03/27 05:38:40;;;;;;;4.43;1.50;;;6.10;1.00;;;;;;5075253;28;20272;-78
2021/03/27 05:41:15;;;;;;;5.70;1.80;;;6.10;1.00;;;;;;5057479;28;20517;-85
2021/03/27 05:44:02;;;;;;;6.03;1.40;;;6.00;1.00;;;;;;5075715;28;20188;-85
2021/03/27 05:46:28;;;;;;;4.80;1.43;;;6.00;1.00;;;;;;5057683;28;20176;-85
2021/03/27 05:49:09;;;;;;;6.20;1.60;;;6.00;1.00;;;;;;5057436;28;20666;-80
2021/03/27 05:51:54;;;;;;;4.60;1.70;;;6.00;3.90;;;;;;5074677;28;20203;-81
2021/03/27 05:55:10;;;;;;;6.53;2.43;;;6.00;11.70;;;;;;5075157;28;20160;-83
2021/03/27 05:57:53;;;;;;;5.17;1.40;;;6.00;25.00;;;;;;5075099;28;20168;-78
2021/03/27 06:00:44;;;;;;;5.90;1.83;;;5.90;39.90;;;;;;5057144;28;20214;-85
2021/03/27 06:03:28;;;;;;;5.63;2.80;;;5.80;49.60;;;;;;5074775;28;20234;-85
2021/03/27 06:06:34;;;;;;;6.40;2.40;;;6.00;52.30;;;;;;5056195;28;20635;-84
2021/03/27 06:09:18;;;;;;;6.07;2.23;;;5.90;51.90;;;;;;5061066;28;20199;-86
2021/03/27 06:11:56;;;;;;;7.40;2.83;;;5.90;57.40;;;;;;5075071;28;20675;-82
2021/03/27 06:15:09;;;;;;;7.87;3.10;;;5.90;61.10;;;;;;5056866;28;20168;-80
2021/03/27 06:18:12;;;;;;;7.07;3.20;;;5.90;64.00;;;;;;4985805;28;20680;-79
2021/03/27 06:21:15;;;;;;;7.70;2.93;;;6.00;65.40;;;;;;5056423;28;20562;-83
2021/03/27 06:23:50;;;;;;;6.80;3.10;;;6.10;64.10;;;;;;5074668;28;20164;-84
2021/03/27 06:26:53;;;;;;;5.97;2.93;;;6.20;64.40;;;;;;5056344;28;20215;-85
2021/03/27 06:29:40;;;;;;;7.23;3.10;;;6.20;69.00;;;;;;5074165;28;20172;-83
2021/03/27 06:32:17;;;;;;;12.77;3.67;;;6.30;68.70;;;;;;5074243;28;20687;-85
2021/03/27 06:35:01;;;;;;;10.33;3.20;;;6.40;68.30;;;;;;5056025;28;20177;-84
2021/03/27 06:37:52;;;;;;;8.30;2.83;;;6.50;65.90;;;;;;5073685;28;20268;-86
2021/03/27 06:41:01;;;;;;;8.33;2.70;;;6.50;64.00;;;;;;5074466;28;20175;-86
2021/03/27 06:43:30;;;;;;;9.67;2.40;;;6.50;60.40;;;;;;5074021;28;20184;-81
2021/03/27 06:46:22;;;;;;;10.33;2.53;;;6.60;63.90;;;;;;5074084;28;20187;-82
2021/03/27 06:49:11;;;;;;;8.27;3.17;;;6.60;62.10;;;;;;5073814;28;20161;-82
2021/03/27 06:52:21;;;;;;;6.70;2.40;;;6.60;66.10;;;;;;5024971;28;20231;-86
2021/03/27 06:55:31;;;;;;;12.13;2.83;;;6.70;59.90;;;;;;5036501;28;20344;-82
2021/03/27 06:58:03;;;;;;;10.40;2.63;;;6.70;61.50;;;;;;5036055;28;20697;-86
2021/03/27 07:00:52;;;;;;;11.60;2.90;;;6.80;59.70;;;;;;5073993;28;20251;-86
2021/03/27 07:03:45;;;;;;;8.37;2.37;;;6.70;64.30;;;;;;5055430;28;20643;-86
2021/03/27 07:06:49;;;;;;;10.73;2.43;;;6.70;63.50;;;;;;5073418;28;20187;-84
2021/03/27 07:09:52;;;;;;;9.93;2.30;;;6.80;64.20;;;;;;5018605;28;20254;-83
2021/03/27 07:12:38;;;;;;;6.43;2.20;;;6.90;63.10;;;;;;5073417;28;20204;-83
2021/03/27 07:15:24;;;;;;;9.53;2.67;;;7.00;56.20;;;;;;5073535;28;20244;-86
2021/03/27 07:18:27;;;;;;;7.80;2.33;;;7.00;55.00;;;;;;5073310;28;20171;-87
2021/03/27 07:21:20;;;;;;;7.37;2.27;;;7.00;55.80;;;;;;5073419;28;20631;-86
2021/03/27 07:23:57;;;;;;;12.07;2.67;;;7.20;53.70;;;;;;5073537;28;20179;-86
2021/03/27 07:26:42;;;;;;;9.47;2.63;;;7.30;49.30;;;;;;5073444;28;20188;-84
2021/03/27 07:29:44;;;;;;;13.30;2.47;;;7.20;41.30;;;;;;5073281;28;20164;-85
2021/03/27 07:32:25;;;;;;;13.00;2.67;;;7.20;48.40;;;;;;5054597;28;20214;-80
2021/03/27 07:35:14;;;;;;;11.30;2.40;;;7.20;49.00;;;;;;5054759;28;20617;-81
2021/03/27 07:38:07;;;;;;;12.13;2.90;;;7.30;46.50;;;;;;5073443;28;20259;-80
2021/03/27 07:40:56;;;;;;;10.40;2.30;;;7.30;38.60;;;;;;5072547;28;20236;-84
2021/03/27 07:43:59;;;;;;;11.43;2.70;;;7.30;33.90;;;;;;5073004;28;20191;-83
2021/03/27 07:46:37;;;;;;;10.90;2.00;;;7.50;27.70;;;;;;5054642;28;20250;-84
2021/03/27 07:49:14;;;;;;;8.73;2.60;;;7.60;14.80;;;;;;5072617;28;20167;-85
2021/03/27 07:52:08;;;;;;;6.40;2.00;;;7.70;1.00;;;;;;5072400;28;20211;-81
2021/03/27 07:55:05;;;;;;;7.20;2.10;;;7.70;1.00;;;;;;5055232;28;20177;-79
2021/03/27 07:57:56;;;;;;;9.50;2.63;;;7.70;1.00;;;;;;5072276;28;20655;-80
2021/03/27 08:00:59;;;;;;;11.97;2.30;;;7.70;1.00;;;;;;5053892;28;20168;-79
2021/03/27 08:03:48;;;;;;;6.90;2.50;;;7.70;1.00;;;;;;5053076;28;20176;-84
2021/03/27 08:06:44;;;;;;;9.37;2.40;;;7.80;1.00;;;;;;5072230;28;20191;-82
2021/03/27 08:09:22;;;;;;;9.63;2.47;;;7.80;1.00;;;;;;5054418;28;20554;-77
2021/03/27 08:12:21;;;;;;;7.80;3.13;;;7.80;1.00;;;;;;5053656;28;20631;-83
2021/03/27 08:15:05;;;;;;;9.33;2.60;;;7.80;1.00;;;;;;5071559;28;20164;-85
2021/03/27 08:18:01;;;;;;;7.50;2.40;;;7.80;1.00;;;;;;5071642;28;20171;-77
2021/03/27 08:20:31;;;;;;;12.13;2.90;;;7.90;1.00;;;;;;5053619;28;20172;-80
2021/03/27 08:23:29;;;;;;;12.90;3.40;;;8.00;1.00;;;;;;5054315;28;20175;-82
2021/03/27 08:25:57;;;;;;;9.60;2.87;;;8.00;1.00;;;;;;5053781;28;20259;-82
2021/03/27 08:28:41;;;;;;;8.13;2.80;;;8.00;1.00;;;;;;5072005;28;20173;-84
2021/03/27 08:31:23;;;;;;;9.47;3.50;;;8.10;1.00;;;;;;5071679;28;20211;-82
2021/03/27 08:34:24;;;;;;;11.20;2.83;;;8.10;1.00;;;;;;5053986;28;20591;-83
2021/03/27 08:37:29;;;;;;;10.00;3.27;;;8.20;1.00;;;;;;5071590;28;20233;-79
2021/03/27 08:39:55;;;;;;;10.10;2.70;;;8.30;1.00;;;;;;5070839;28;20183;-82
2021/03/27 08:42:45;;;;;;;13.23;3.03;;;8.30;1.00;;;;;;5071533;28;20298;-82
2021/03/27 08:45:41;;;;;;;9.67;2.83;;;8.30;1.00;;;;;;5071337;28;20508;-80
2021/03/27 08:48:22;;;;;;;11.20;2.70;;;8.50;1.00;;;;;;5071317;28;20167;-81
2021/03/27 08:50:47;;;;;;;12.30;2.77;;;8.50;1.00;;;;;;5071477;28;20200;-80
2021/03/27 08:53:50;;;;;;;12.27;2.90;;;8.50;1.00;;;;;;5075285;28;20176;-84
2021/03/27 08:56:34;;;;;;;15.00;3.43;;;8.30;1.00;;;;;;5074923;28;20175;-81
2021/03/27 08:59:48;;;;;;;11.97;2.97;;;8.20;1.00;;;;;;5056870;28;20198;-80
2021/03/27 09:02:23;;;;;;;17.80;3.20;;;8.20;1.00;;;;;;4985647;28;20286;-78
2021/03/27 09:05:22;;;;;;;8.47;2.47;;;8.30;1.00;;;;;;5074740;28;20278;-79
2021/03/27 09:08:09;;;;;;;9.70;3.03;;;8.20;1.00;;;;;;5074099;28;20203;-77
2021/03/27 09:11:06;;;;;;;9.53;2.93;;;8.20;1.00;;;;;;5074163;28;20624;-79
2021/03/27 09:13:41;;;;;;;14.63;3.27;;;8.30;1.00;;;;;;5056114;28;20264;-78
2021/03/27 09:16:30;;;;;;;12.73;3.27;;;8.30;1.00;;;;;;5056479;28;20620;-80
2021/03/27 09:18:56;;;;;;;11.83;2.83;;;8.40;1.00;;;;;;5074857;28;20239;-78
2021/03/27 09:21:48;;;;;;;9.43;2.80;;;8.40;1.00;;;;;;5074699;28;20658;-81
2021/03/27 09:24:43;;;;;;;7.87;2.83;;;8.30;1.00;;;;;;5056895;28;20171;-80
2021/03/27 09:27:43;;;;;;;13.70;3.50;;;8.30;1.00;;;;;;5074481;28;20198;-78
2021/03/27 09:30:28;;;;;;;8.17;2.20;;;8.30;99.90;;;;;;5057269;28;20179;-77
2021/03/27 09:33:09;;;;;;;4.57;2.33;;;8.30;99.90;;;;;;5075904;28;20208;-88
2021/03/27 09:36:08;;;;;;;8.67;2.93;;;8.40;99.90;;;;;;5075330;28;20168;-82
2021/03/27 09:39:03;;;;;;;6.73;2.47;;;8.40;31.50;;;;;;5076820;28;20176;-87
2021/03/27 09:42:02;;;;;;;9.13;2.73;;;8.40;1.00;;;;;;5060068;28;20180;-83
2021/03/27 09:44:31;;;;;;;6.93;3.07;;;8.60;99.90;;;;;;5073962;28;20164;-84
2021/03/27 09:47:22;;;;;;;12.23;2.87;;;8.60;31.90;;;;;;5054853;28;20218;-80
2021/03/27 09:49:59;;;;;;;7.77;2.80;;;8.50;1.00;;;;;;5073966;28;20165;-77
2021/03/27 09:52:49;;;;;;;5.43;2.47;;;8.60;1.00;;;;;;5074213;28;20283;-84
2021/03/27 09:55:36;;;;;;;7.87;2.43;;;8.60;99.90;;;;;;5074382;28;20172;-81
2021/03/27 09:58:25;;;;;;;7.03;2.30;;;8.80;99.90;;;;;;5074332;28;20620;-84
2021/03/27 10:01:12;;;;;;;4.73;1.60;;;9.10;99.90;;;;;;5074757;28;20226;-81
2021/03/27 10:04:09;;;;;;;8.57;2.50;;;9.30;25.00;;;;;;5055514;28;20175;-83
2021/03/27 10:06:59;;;;;;;5.73;1.80;;;9.20;39.70;;;;;;5057222;28;20187;-85
2021/03/27 10:09:46;;;;;;;7.13;2.43;;;9.50;1.00;;;;;;5074277;28;20202;-80
2021/03/27 10:12:11;;;;;;;9.90;2.30;;;9.40;1.00;;;;;;5073674;28;20219;-83
2021/03/27 10:14:52;;;;;;;5.20;1.70;;;9.30;1.00;;;;;;5056267;28;20698;-79
2021/03/27 10:17:41;;;;;;;7.47;2.90;;;9.30;1.00;;;;;;5076667;28;20638;-86
2021/03/27 10:20:31;;;;;;;6.57;2.20;;;9.40;1.00;;;;;;5078465;28;20477;-85
2021/03/27 10:23:20;;;;;;;4.50;1.70;;;9.50;1.00;;;;;;5078374;28;20164;-86
2021/03/27 10:26:25;;;;;;;4.20;2.03;;;9.40;1.00;;;;;;5073962;28;20175;-85
2021/03/27 10:28:57;;;;;;;7.83;2.50;;;9.50;1.00;;;;;;5073576;28;20202;-84
2021/03/27 10:31:35;;;;;;;4.97;2.20;;;9.80;1.00;;;;;;5073763;28;20207;-85
2021/03/27 10:34:32;;;;;;;7.67;2.13;;;10.10;1.00;;;;;;5073635;28;20643;-85
2021/03/27 10:37:04;;;;;;;6.47;2.03;;;10.30;1.00;;;;;;5073287;28;20636;-85
2021/03/27 10:39:48;;;;;;;4.83;1.40;;;10.30;1.00;;;;;;5055577;28;20171;-85
2021/03/27 10:42:36;;;;;;;6.00;2.10;;;10.00;1.00;;;;;;5055222;28;20713;-86
2021/03/27 10:45:36;;;;;;;5.73;1.87;;;9.70;1.00;;;;;;5074139;28;20195;-87
2021/03/27 10:48:19;;;;;;;5.90;1.97;;;9.70;1.00;;;;;;5073499;28;20567;-87
2021/03/27 10:51:16;;;;;;;4.33;2.17;;;9.60;1.00;;;;;;5073418;28;20174;-85
2021/03/27 10:54:26;;;;;;;9.63;2.40;;;9.60;1.00;;;;;;5073283;28;20176;-86
2021/03/27 10:57:10;;;;;;;5.00;1.93;;;10.00;1.00;;;;;;5073244;28;20218;-86
2021/03/27 11:00:02;;;;;;;5.60;2.00;;;10.10;1.00;;;;;;5073520;28;20529;-82
2021/03/27 11:03:00;;;;;;;7.63;1.83;;;10.30;1.00;;;;;;5016340;28;20244;-86
2021/03/27 11:05:29;;;;;;;3.80;1.43;;;10.10;1.00;;;;;;5072690;28;20168;-83
2021/03/27 11:08:40;;;;;;;6.43;1.87;;;10.10;1.00;;;;;;5072626;28;20223;-80
2021/03/27 11:11:28;;;;;;;4.60;1.43;;;10.30;1.00;;;;;;5073069;28;20223;-82
2021/03/27 11:14:21;;;;;;;5.13;1.90;;;10.30;1.00;;;;;;5072518;28;20620;-83
2021/03/27 11:17:22;;;;;;;4.60;1.77;;;10.30;1.00;;;;;;5072498;28;20220;-87
2021/03/27 11:19:50;;;;;;;6.93;1.73;;;10.20;1.00;;;;;;5072639;28;20194;-82
2021/03/27 11:22:52;;;;;;;6.40;1.90;;;10.20;1.00;;;;;;5072900;28;20200;-82
2021/03/27 11:25:35;;;;;;;3.80;1.40;;;10.40;1.00;;;;;;5072455;28;20527;-85
2021/03/27 11:28:30;;;;;;;6.70;1.57;;;10.40;1.00;;;;;;5072675;28;20190;-81
2021/03/27 11:30:58;;;;;;;2.97;1.50;;;10.60;1.00;;;;;;5054599;28;20203;-83
2021/03/27 11:33:48;;;;;;;3.33;1.57;;;10.60;1.00;;;;;;5072784;28;20172;-82
2021/03/27 11:36:31;;;;;;;5.00;1.57;;;10.70;1.00;;;;;;5074590;28;20540;-87
2021/03/27 11:39:17;;;;;;;6.20;1.70;;;10.60;1.00;;;;;;5071794;28;20236;-82
2021/03/27 11:42:17;;;;;;;5.03;1.77;;;10.90;1.00;;;;;;5054270;28;20168;-82
2021/03/27 11:44:53;;;;;;;4.90;1.57;;;10.80;1.00;;;;;;5067739;28;20330;-85
2021/03/27 11:47:37;;;;;;;5.77;1.93;;;11.00;1.00;;;;;;5072296;28;20168;-85
2021/03/27 11:50:31;;;;;;;7.50;2.10;;;11.10;1.00;;;;;;5072184;28;20168;-84
2021/03/27 11:53:32;;;;;;;7.07;1.70;;;10.80;1.00;;;;;;5071983;28;20212;-82
2021/03/27 11:56:28;;;;;;;5.20;1.77;;;10.70;1.00;;;;;;5011773;28;20527;-84
2021/03/27 12:02:25;;;;;;;5.70;1.90;;;10.90;1.00;;;;;;5072915;28;20221;-85
2021/03/27 12:04:56;;;;;;;4.30;1.70;;;11.10;1.00;;;;;;5053987;28;20967;-80
2021/03/27 12:07:36;;;;;;;5.57;2.03;;;11.30;1.00;;;;;;5071962;28;20677;-79
2021/03/27 12:10:29;;;;;;;3.63;1.50;;;11.40;1.00;;;;;;5071993;28;20168;-79
2021/03/27 12:13:10;;;;;;;5.17;1.77;;;11.30;1.00;;;;;;5072160;28;20212;-82
2021/03/27 12:16:01;;;;;;;5.60;1.60;;;11.00;1.00;;;;;;5071963;28;20252;-80
2021/03/27 12:18:46;;;;;;;3.57;1.20;;;11.10;1.00;;;;;;5072330;28;20176;-83
2021/03/27 12:21:33;;;;;;;6.70;1.70;;;11.10;1.00;;;;;;5072003;28;20164;-83
2021/03/27 12:24:20;;;;;;;4.13;1.70;;;10.90;1.00;;;;;;5072067;28;20252;-81
2021/03/27 12:26:59;;;;;;;6.40;1.70;;;11.00;99.90;;;;;;5055327;28;20618;-84
2021/03/27 12:29:46;;;;;;;6.27;1.57;;;11.20;1.00;;;;;;5075900;28;20179;-79
2021/03/27 12:32:20;;;;;;;5.53;1.50;;;11.30;99.90;;;;;;5076029;28;20296;-85
2021/03/27 12:34:57;;;;;;;7.07;2.00;;;11.10;99.90;;;;;;5075645;28;20171;-82
2021/03/27 12:37:33;;;;;;;5.20;1.70;;;11.40;1.00;;;;;;5075556;28;20171;-83
2021/03/27 12:40:20;;;;;;;6.90;2.30;;;11.50;99.90;;;;;;5058011;28;20266;-81
2021/03/27 12:42:49;;;;;;;6.20;1.53;;;11.40;1.00;;;;;;5075758;28;20245;-84
2021/03/27 12:45:29;;;;;;;5.37;1.70;;;11.30;99.90;;;;;;5075461;28;20199;-83
2021/03/27 12:48:03;;;;;;;8.47;2.13;;;11.30;99.90;;;;;;5057530;28;20176;-87
2021/03/27 12:50:40;;;;;;;5.63;1.77;;;11.50;1.00;;;;;;5075261;28;20228;-81
2021/03/27 12:53:33;;;;;;;7.37;2.67;;;11.70;1.00;;;;;;5075479;28;20221;-82
2021/03/27 12:56:17;;;;;;;5.40;2.47;;;11.80;99.90;;;;;;5074833;28;20177;-85
2021/03/27 12:59:04;;;;;;;5.70;1.70;;;11.70;99.90;;;;;;5075412;28;20563;-86
2021/03/27 13:01:42;;;;;;;6.17;2.67;;;11.40;1.00;;;;;;5075675;28;20258;-83
2021/03/27 13:04:45;;;;;;;6.50;2.30;;;11.50;1.00;;;;;;5075599;28;20183;-80
2021/03/27 13:07:38;;;;;;;6.63;2.30;;;11.40;1.00;;;;;;5074621;28;20245;-83
2021/03/27 13:10:19;;;;;;;6.43;2.53;;;11.60;1.00;;;;;;5075087;28;20165;-84
2021/03/27 13:12:48;;;;;;;6.07;1.83;;;11.50;1.00;;;;;;5074766;28;20247;-86
2021/03/27 13:15:28;;;;;;;4.87;2.07;;;11.40;1.00;;;;;;5075026;28;20168;-87
2021/03/27 13:18:05;;;;;;;10.30;2.23;;;11.60;1.00;;;;;;5074628;28;20175;-84
2021/03/27 13:20:51;;;;;;;7.27;2.33;;;11.70;1.00;;;;;;5074856;28;20168;-86
2021/03/27 13:23:25;;;;;;;3.77;1.57;;;11.60;1.00;;;;;;5075287;28;20255;-86
2021/03/27 13:26:01;;;;;;;4.97;1.60;;;11.30;1.00;;;;;;5074936;28;20160;-85
2021/03/27 13:28:43;;;;;;;4.97;1.90;;;11.40;1.00;;;;;;5056578;28;20172;-85
2021/03/27 13:31:17;;;;;;;5.57;1.80;;;11.60;1.00;;;;;;5074579;28;20274;-87
2021/03/27 13:34:19;;;;;;;7.37;2.07;;;11.50;1.00;;;;;;5074619;28;20168;-84
2021/03/27 13:37:01;;;;;;;7.63;1.80;;;11.40;1.00;;;;;;5074613;28;20545;-84
2021/03/27 13:39:41;;;;;;;8.73;2.30;;;11.50;1.00;;;;;;5073906;28;20168;-85
2021/03/27 13:42:09;;;;;;;5.33;2.10;;;11.90;1.00;;;;;;5074565;28;20172;-85
2021/03/27 13:45:05;;;;;;;7.77;1.97;;;12.00;1.00;;;;;;5074394;28;20247;-84
2021/03/27 13:47:31;;;;;;;10.00;2.27;;;11.80;1.00;;;;;;5073844;28;20176;-79
2021/03/27 13:50:01;;;;;;;6.07;1.57;;;11.90;1.00;;;;;;5056055;28;20164;-85
2021/03/27 13:52:47;;;;;;;4.33;1.60;;;11.80;99.90;;;;;;5056425;28;20667;-85
2021/03/27 13:55:27;;;;;;;5.03;1.50;;;11.80;99.90;;;;;;5074468;28;20160;-80
2021/03/27 13:58:02;;;;;;;6.00;2.07;;;11.90;99.90;;;;;;5056150;28;20175;-85
2021/03/27 14:00:36;;;;;;;4.17;1.60;;;11.90;99.90;;;;;;5074294;28;20178;-81
2021/03/27 14:03:31;;;;;;;4.93;2.00;;;12.10;99.90;;;;;;5055889;28;20168;-85
2021/03/27 14:06:03;;;;;;;4.13;1.80;;;12.20;99.90;;;;;;5073822;28;20188;-84
2021/03/27 14:08:40;;;;;;;3.40;1.40;;;11.70;99.90;;;;;;5056415;28;20229;-84
2021/03/27 14:11:22;;;;;;;5.97;1.90;;;11.60;99.90;;;;;;5074024;28;20196;-86
2021/03/27 14:14:06;;;;;;;6.07;1.80;;;11.70;99.90;;;;;;5073765;28;20666;-83
2021/03/27 14:16:57;;;;;;;4.57;1.80;;;11.80;99.90;;;;;;5056163;28;20172;-81
2021/03/27 14:19:43;;;;;;;5.87;2.20;;;11.40;99.90;;;;;;5074115;28;20172;-82
2021/03/27 14:22:34;;;;;;;5.57;1.90;;;11.40;99.90;;;;;;5073933;28;20179;-83
2021/03/27 14:25:36;;;;;;;6.80;1.80;;;11.40;99.90;;;;;;5073363;28;20187;-83
2021/03/27 14:28:20;;;;;;;4.20;1.80;;;11.50;1.00;;;;;;5055736;28;20183;-83
2021/03/27 14:30:58;;;;;;;6.63;2.00;;;11.70;99.90;;;;;;5055931;28;20172;-80